Time;durP1;ratioP1;P1;durP2;ratioP2;P2;SDS_P1;SDS_P2;PMS_P1;PMS_P2;Temp;Humidity;BMP_temperature;BMP_pressure;BME280_temperature;BME280_humidity;BME280_pressure;Samples;Min_cycle;Max_cycle;Signal;HPM_P1;HPM_P2
2021/12/20 00:01:26;;;;;;;31.83;4.70;;;;;;;;;;5112740;28;20036;-77
2021/12/20 00:03:52;;;;;;;28.58;4.25;;;;;;;;;;5112517;28;20439;-79
2021/12/20 00:06:18;;;;;;;30.35;4.72;;;;;;;;;;5112706;28;20043;-79
2021/12/20 00:08:44;;;;;;;38.42;5.00;;;;;;;;;;5112541;28;20137;-78
2021/12/20 00:11:10;;;;;;;33.70;4.32;;;;;;;;;;5112625;28;20091;-77
2021/12/20 00:13:36;;;;;;;38.63;4.97;;;;;;;;;;5112383;28;20477;-78
2021/12/20 00:16:02;;;;;;;36.22;4.50;;;;;;;;;;5112629;28;20051;-79
2021/12/20 00:18:29;;;;;;;28.73;4.05;;;;;;;;;;5114941;28;20143;-79
2021/12/20 00:20:55;;;;;;;31.13;5.25;;;;;;;;;;5081130;28;20465;-79
2021/12/20 00:23:22;;;;;;;31.63;5.25;;;;;;;;;;5081505;28;20473;-78
2021/12/20 00:25:48;;;;;;;31.95;5.10;;;;;;;;;;5116261;28;20039;-78
2021/12/20 00:28:16;;;;;;;32.05;4.72;;;;;;;;;;5116127;28;20047;-78
2021/12/20 00:30:43;;;;;;;31.80;4.82;;;;;;;;;;5098157;28;20079;-79
2021/12/20 00:33:09;;;;;;;28.92;4.38;;;;;;;;;;5115964;28;20542;-78
2021/12/20 00:35:35;;;;;;;34.25;5.00;;;;;;;;;;5115926;28;20065;-77
2021/12/20 00:40:47;;;;;;;33.03;4.75;;;;;;;;;;5116047;28;20512;-80
2021/12/20 00:43:13;;;;;;;26.05;4.32;;;;;;;;;;5097751;28;20051;-77
2021/12/20 00:45:39;;;;;;;29.42;4.40;;;;;;;;;;5097787;28;20438;-77
2021/12/20 00:48:05;;;;;;;32.72;5.68;;;;;;;;;;5115836;28;20036;-77
2021/12/20 00:50:32;;;;;;;28.55;4.30;;;;;;;;;;5115607;28;20040;-80
2021/12/20 00:52:58;;;;;;;34.88;4.70;;;;;;;;;;5115834;28;20044;-79
2021/12/20 00:55:25;;;;;;;34.72;4.53;;;;;;;;;;5115763;28;20537;-79
2021/12/20 00:57:53;;;;;;;30.88;4.30;;;;;;;;;;5115397;28;20080;-78
2021/12/20 01:00:21;;;;;;;26.50;4.93;;;;;;;;;;5115438;28;20362;-78
2021/12/20 01:02:47;;;;;;;28.60;4.00;;;;;;;;;;5115420;28;20043;-78
2021/12/20 01:05:13;;;;;;;24.73;4.32;;;;;;;;;;5115240;28;20466;-77
2021/12/20 01:07:39;;;;;;;27.17;4.38;;;;;;;;;;5115475;28;20089;-78
2021/12/20 01:10:08;;;;;;;29.02;4.55;;;;;;;;;;5115262;28;20049;-78
2021/12/20 01:12:47;;;;;;;32.00;4.60;;;;;;;;;;5115069;28;20043;-79
2021/12/20 01:15:18;;;;;;;35.42;4.90;;;;;;;;;;5115140;28;20488;-78
2021/12/20 01:17:44;;;;;;;29.88;4.60;;;;;;;;;;5097026;28;20112;-78
2021/12/20 01:20:11;;;;;;;27.95;4.45;;;;;;;;;;5115343;28;20051;-79
2021/12/20 01:22:37;;;;;;;29.52;4.63;;;;;;;;;;5097092;28;20044;-78
2021/12/20 01:25:04;;;;;;;33.05;5.05;;;;;;;;;;5097004;28;20126;-79
2021/12/20 01:27:30;;;;;;;28.20;4.18;;;;;;;;;;5114860;28;20039;-79
2021/12/20 01:29:56;;;;;;;32.67;4.03;;;;;;;;;;5095677;28;20039;-77
2021/12/20 01:32:23;;;;;;;31.10;4.72;;;;;;;;;;5114736;28;20053;-79
2021/12/20 01:34:49;;;;;;;24.38;4.40;;;;;;;;;;5114785;28;20039;-80
2021/12/20 01:37:15;;;;;;;26.38;3.83;;;;;;;;;;5096957;28;20043;-78
2021/12/20 01:39:42;;;;;;;31.80;4.50;;;;;;;;;;5114641;28;20043;-79
2021/12/20 01:42:08;;;;;;;30.52;4.70;;;;;;;;;;5096938;28;20050;-78
2021/12/20 01:44:36;;;;;;;22.35;4.50;;;;;;;;;;5096638;28;20079;-80
2021/12/20 01:47:04;;;;;;;25.95;4.38;;;;;;;;;;5114707;28;20047;-79
2021/12/20 01:49:39;;;;;;;30.35;4.35;;;;;;;;;;5114722;28;20058;-79
2021/12/20 01:52:11;;;;;;;27.38;4.30;;;;;;;;;;5096268;28;20047;-78
2021/12/20 01:54:37;;;;;;;31.15;4.15;;;;;;;;;;5114492;28;20050;-77
2021/12/20 01:57:04;;;;;;;32.63;5.03;;;;;;;;;;5114207;28;20048;-77
2021/12/20 01:59:30;;;;;;;22.85;3.60;;;;;;;;;;5114493;28;20105;-78
2021/12/20 02:01:56;;;;;;;33.03;4.80;;;;;;;;;;5114137;28;20050;-78
2021/12/20 02:04:23;;;;;;;24.75;4.00;;;;;;;;;;5113861;28;20481;-77
2021/12/20 02:06:50;;;;;;;21.13;3.60;;;;;;;;;;5114165;28;20122;-78
2021/12/20 02:09:18;;;;;;;28.75;4.30;;;;;;;;;;5113800;28;20046;-79
2021/12/20 02:11:46;;;;;;;24.55;4.22;;;;;;;;;;5113952;28;20039;-77
2021/12/20 02:14:12;;;;;;;33.17;4.85;;;;;;;;;;5114173;28;20047;-78
2021/12/20 02:16:40;;;;;;;25.27;4.38;;;;;;;;;;5114225;28;20044;-77
2021/12/20 02:19:10;;;;;;;33.47;4.30;;;;;;;;;;5113971;28;20051;-77
2021/12/20 02:21:36;;;;;;;31.40;4.35;;;;;;;;;;5113909;28;20451;-79
2021/12/20 02:24:03;;;;;;;26.90;4.15;;;;;;;;;;5113770;28;20042;-79
2021/12/20 02:26:29;;;;;;;27.30;4.00;;;;;;;;;;5113768;28;20511;-79
2021/12/20 02:29:01;;;;;;;30.55;4.25;;;;;;;;;;5113982;28;20079;-77
2021/12/20 02:37:14;;;;;;;26.77;3.90;;;;;;;;;;5113792;28;20055;-78
2021/12/20 02:39:40;;;;;;;22.42;3.85;;;;;;;;;;5113778;28;20373;-78
2021/12/20 02:42:07;;;;;;;22.67;4.47;;;;;;;;;;5113634;28;20442;-79
2021/12/20 02:44:33;;;;;;;27.42;3.92;;;;;;;;;;5113657;28;20062;-78
2021/12/20 02:49:26;;;;;;;24.40;3.88;;;;;;;;;;5113873;28;20054;-78
2021/12/20 02:51:54;;;;;;;31.35;4.07;;;;;;;;;;5095067;28;20081;-78
2021/12/20 02:54:21;;;;;;;22.52;3.72;;;;;;;;;;5113147;28;20491;-76
2021/12/20 02:56:48;;;;;;;25.42;3.45;;;;;;;;;;5113313;28;20128;-78
2021/12/20 02:59:15;;;;;;;24.73;3.80;;;;;;;;;;5095136;28;20043;-80
2021/12/20 03:01:42;;;;;;;27.77;3.70;;;;;;;;;;5095258;28;20085;-77
2021/12/20 03:04:08;;;;;;;24.67;4.30;;;;;;;;;;5095475;28;20084;-77
2021/12/20 03:06:43;;;;;;;29.38;3.92;;;;;;;;;;5095182;28;20134;-78
2021/12/20 03:09:14;;;;;;;27.58;4.60;;;;;;;;;;5095110;28;20100;-77
2021/12/20 03:11:40;;;;;;;29.00;4.03;;;;;;;;;;5113041;28;20043;-77
2021/12/20 03:14:29;;;;;;;25.35;3.97;;;;;;;;;;5113066;28;20044;-78
2021/12/20 03:16:56;;;;;;;19.05;3.63;;;;;;;;;;5095302;28;20043;-78
2021/12/20 03:19:22;;;;;;;27.63;4.30;;;;;;;;;;5077719;28;20040;-77
2021/12/20 03:21:49;;;;;;;28.60;3.97;;;;;;;;;;5112949;28;20043;-78
2021/12/20 03:24:15;;;;;;;27.27;4.10;;;;;;;;;;5112962;28;20039;-78
2021/12/20 03:26:41;;;;;;;24.75;3.83;;;;;;;;;;5112909;28;20102;-78
2021/12/20 03:29:07;;;;;;;29.55;3.30;;;;;;;;;;5113158;28;20047;-77
2021/12/20 03:31:33;;;;;;;27.25;3.80;;;;;;;;;;5113075;28;20403;-77
2021/12/20 03:34:00;;;;;;;27.17;3.78;;;;;;;;;;5113034;28;20050;-78
2021/12/20 03:36:26;;;;;;;30.15;4.40;;;;;;;;;;5078157;28;20043;-77
2021/12/20 03:38:52;;;;;;;36.17;4.70;;;;;;;;;;5094537;28;20035;-77
2021/12/20 03:41:18;;;;;;;32.53;4.03;;;;;;;;;;5112652;28;20501;-78
2021/12/20 03:43:44;;;;;;;25.88;3.80;;;;;;;;;;5112841;28;20046;-79
2021/12/20 03:46:11;;;;;;;29.52;4.35;;;;;;;;;;5112771;28;20048;-79
2021/12/20 03:48:37;;;;;;;24.67;3.65;;;;;;;;;;5112733;28;20040;-78
2021/12/20 03:51:04;;;;;;;31.73;3.65;;;;;;;;;;5112531;28;20477;-78
2021/12/20 03:53:30;;;;;;;30.42;4.40;;;;;;;;;;5115514;28;20047;-76
2021/12/20 03:55:57;;;;;;;28.92;3.97;;;;;;;;;;5098623;28;20051;-78
2021/12/20 03:58:26;;;;;;;27.17;4.05;;;;;;;;;;5098863;28;20047;-77
2021/12/20 04:00:52;;;;;;;23.65;3.97;;;;;;;;;;5098646;28;20485;-77
2021/12/20 04:03:18;;;;;;;28.88;4.30;;;;;;;;;;5116746;28;20052;-78
2021/12/20 04:05:45;;;;;;;34.42;4.68;;;;;;;;;;5116633;28;20047;-77
2021/12/20 04:08:11;;;;;;;22.17;3.95;;;;;;;;;;5116460;28;20473;-77
2021/12/20 04:10:37;;;;;;;24.73;3.58;;;;;;;;;;5116288;28;20384;-79
2021/12/20 04:13:03;;;;;;;25.88;3.85;;;;;;;;;;5116664;28;20495;-78
2021/12/20 04:15:29;;;;;;;35.60;4.50;;;;;;;;;;5116625;28;20475;-78
2021/12/20 04:17:55;;;;;;;34.40;4.63;;;;;;;;;;5116357;28;20088;-78
2021/12/20 04:20:21;;;;;;;31.95;4.88;;;;;;;;;;5097806;28;20497;-77
2021/12/20 04:22:47;;;;;;;30.05;3.70;;;;;;;;;;5116138;28;20388;-77
2021/12/20 04:25:13;;;;;;;37.40;4.18;;;;;;;;;;5116039;28;20047;-79
2021/12/20 04:27:40;;;;;;;34.38;4.22;;;;;;;;;;5116163;28;20057;-77
2021/12/20 04:30:11;;;;;;;31.58;4.53;;;;;;;;;;5115980;28;20472;-79
2021/12/20 04:32:42;;;;;;;33.28;4.07;;;;;;;;;;5098102;28;20543;-78
2021/12/20 04:35:09;;;;;;;36.22;4.75;;;;;;;;;;5115985;28;20480;-77
2021/12/20 04:37:35;;;;;;;30.58;4.13;;;;;;;;;;5081082;28;20055;-78
2021/12/20 04:40:06;;;;;;;32.65;4.57;;;;;;;;;;5116041;28;20110;-77
2021/12/20 04:42:32;;;;;;;34.13;4.65;;;;;;;;;;5097978;28;20043;-79
2021/12/20 04:44:59;;;;;;;32.05;3.90;;;;;;;;;;5115952;28;20035;-80
2021/12/20 04:47:25;;;;;;;28.27;4.15;;;;;;;;;;5115905;28;20046;-79
2021/12/20 04:49:51;;;;;;;32.83;4.95;;;;;;;;;;5115778;28;20459;-79
2021/12/20 04:52:17;;;;;;;32.83;4.03;;;;;;;;;;5115453;28;20043;-79
2021/12/20 04:54:43;;;;;;;22.33;3.53;;;;;;;;;;5097852;28;20046;-78
2021/12/20 04:57:10;;;;;;;34.10;4.13;;;;;;;;;;5115769;28;20040;-77
2021/12/20 04:59:36;;;;;;;28.85;4.20;;;;;;;;;;5115530;28;20384;-79
2021/12/20 05:02:02;;;;;;;27.73;3.63;;;;;;;;;;5115461;28;20096;-79
2021/12/20 05:04:28;;;;;;;26.55;3.90;;;;;;;;;;5096224;28;20123;-77
2021/12/20 05:06:54;;;;;;;25.25;3.53;;;;;;;;;;5115577;28;20044;-78
2021/12/20 05:09:20;;;;;;;29.15;4.25;;;;;;;;;;5115545;28;20066;-78
2021/12/20 05:11:58;;;;;;;30.70;4.40;;;;;;;;;;5097241;28;20047;-77
2021/12/20 05:14:24;;;;;;;29.95;4.15;;;;;;;;;;5115133;28;20400;-77
2021/12/20 05:16:50;;;;;;;37.90;4.45;;;;;;;;;;5097162;28;20425;-76
2021/12/20 05:19:16;;;;;;;29.95;4.72;;;;;;;;;;5114791;28;20051;-78
2021/12/20 05:21:42;;;;;;;28.50;4.30;;;;;;;;;;5097309;28;20047;-78
2021/12/20 05:24:08;;;;;;;37.53;4.40;;;;;;;;;;5115269;28;20046;-78
2021/12/20 05:26:34;;;;;;;24.38;4.63;;;;;;;;;;5115228;28;20090;-77
2021/12/20 05:29:06;;;;;;;25.27;4.22;;;;;;;;;;5096940;28;20083;-77
2021/12/20 05:31:34;;;;;;;30.02;4.32;;;;;;;;;;5096574;28;20058;-79
2021/12/20 05:34:00;;;;;;;24.27;3.92;;;;;;;;;;5114906;28;20043;-77
2021/12/20 05:36:26;;;;;;;23.00;3.35;;;;;;;;;;5115200;28;20423;-77
2021/12/20 05:38:52;;;;;;;20.73;3.38;;;;;;;;;;5096880;28;20052;-77
2021/12/20 05:41:18;;;;;;;18.88;3.50;;;;;;;;;;5114604;28;20171;-77
2021/12/20 05:43:45;;;;;;;19.38;3.60;;;;;;;;;;5114781;28;20081;-79
2021/12/20 05:46:11;;;;;;;19.30;3.00;;;;;;;;;;5096613;28;20090;-79
2021/12/20 05:48:38;;;;;;;34.05;4.75;;;;;;;;;;5114794;28;20465;-77
2021/12/20 05:51:04;;;;;;;21.10;4.05;;;;;;;;;;5114550;28;20676;-77
2021/12/20 05:53:30;;;;;;;26.02;4.63;;;;;;;;;;5114540;28;20190;-77
2021/12/20 05:55:56;;;;;;;22.58;4.00;;;;;;;;;;5114515;28;20450;-77
2021/12/20 05:58:24;;;;;;;32.97;4.45;;;;;;;;;;5114382;28;20396;-78
2021/12/20 06:00:50;;;;;;;23.98;3.70;;;;;;;;;;5114395;28;20050;-78
2021/12/20 06:03:16;;;;;;;31.92;5.13;;;;;;;;;;5079480;28;20383;-77
2021/12/20 06:05:42;;;;;;;25.85;5.43;;;;;;;;;;5114426;28;20040;-77
2021/12/20 06:08:09;;;;;;;22.25;4.57;;;;;;;;;;5114442;28;20047;-77
2021/12/20 06:10:35;;;;;;;33.42;5.38;;;;;;;;;;5114113;28;20080;-79
2021/12/20 06:13:02;;;;;;;31.25;5.50;;;;;;;;;;5114162;28;20051;-77
2021/12/20 06:15:28;;;;;;;22.83;5.00;;;;;;;;;;5113588;28;20425;-77
2021/12/20 06:17:54;;;;;;;31.90;5.55;;;;;;;;;;5114146;28;20039;-78
2021/12/20 06:20:21;;;;;;;29.95;5.57;;;;;;;;;;5113869;28;20052;-78
2021/12/20 06:22:47;;;;;;;25.52;5.40;;;;;;;;;;5114052;28;20051;-78
2021/12/20 06:25:13;;;;;;;28.50;5.00;;;;;;;;;;5114059;28;20039;-77
2021/12/20 06:27:39;;;;;;;28.15;4.95;;;;;;;;;;5095626;28;20060;-78
2021/12/20 06:30:08;;;;;;;26.90;4.82;;;;;;;;;;5113644;28;20120;-77
2021/12/20 06:32:35;;;;;;;20.48;4.65;;;;;;;;;;5095419;28;20111;-77
2021/12/20 06:35:01;;;;;;;29.08;4.55;;;;;;;;;;5113896;28;20393;-77
2021/12/20 06:37:27;;;;;;;26.10;4.20;;;;;;;;;;5113786;28;20133;-77
2021/12/20 06:39:53;;;;;;;23.13;3.60;;;;;;;;;;5113678;28;20388;-76
2021/12/20 06:42:20;;;;;;;19.25;3.45;;;;;;;;;;5095434;28;20044;-78
2021/12/20 06:44:46;;;;;;;20.45;3.45;;;;;;;;;;5113416;28;20370;-77
2021/12/20 06:47:12;;;;;;;16.30;2.83;;;;;;;;;;5113695;28;20046;-78
2021/12/20 06:49:38;;;;;;;12.32;2.40;;;;;;;;;;5113568;28;20515;-77
2021/12/20 06:52:04;;;;;;;14.73;2.05;;;;;;;;;;5078255;28;20075;-77
2021/12/20 06:54:30;;;;;;;9.05;2.10;;;;;;;;;;5095306;28;20078;-77
2021/12/20 06:56:56;;;;;;;7.95;2.00;;;;;;;;;;5095021;28;20048;-77
2021/12/20 06:59:22;;;;;;;10.43;1.95;;;;;;;;;;5113176;28;20089;-77
2021/12/20 07:01:49;;;;;;;12.90;2.05;;;;;;;;;;5113413;28;20043;-77
2021/12/20 07:04:15;;;;;;;10.10;1.90;;;;;;;;;;5113265;28;20046;-77
2021/12/20 07:06:42;;;;;;;7.82;1.95;;;;;;;;;;5095051;28;20126;-77
2021/12/20 07:09:08;;;;;;;12.27;2.65;;;;;;;;;;5113236;28;20035;-78
2021/12/20 07:11:34;;;;;;;18.13;4.65;;;;;;;;;;5094866;28;20076;-77
2021/12/20 07:14:01;;;;;;;15.60;4.00;;;;;;;;;;5095507;28;20043;-77
2021/12/20 07:16:32;;;;;;;12.95;3.90;;;;;;;;;;5113281;28;20046;-78
2021/12/20 07:18:58;;;;;;;13.07;3.65;;;;;;;;;;5113279;28;20099;-77
2021/12/20 07:21:24;;;;;;;13.40;3.50;;;;;;;;;;5113121;28;20058;-77
2021/12/20 07:23:50;;;;;;;13.18;3.95;;;;;;;;;;5113015;28;20047;-77
2021/12/20 07:26:16;;;;;;;9.70;3.25;;;;;;;;;;5112678;28;20388;-78
2021/12/20 07:28:43;;;;;;;12.38;3.60;;;;;;;;;;5094487;28;20164;-78
2021/12/20 07:31:12;;;;;;;12.85;3.22;;;;;;;;;;5112833;28;20043;-78
2021/12/20 07:33:38;;;;;;;13.82;3.28;;;;;;;;;;5094758;28;20039;-78
2021/12/20 07:36:05;;;;;;;15.13;3.50;;;;;;;;;;5094076;28;20434;-78
2021/12/20 07:38:31;;;;;;;16.17;4.00;;;;;;;;;;5112030;28;20049;-78
2021/12/20 07:40:58;;;;;;;13.43;4.28;;;;;;;;;;5112452;28;20040;-78
2021/12/20 07:43:24;;;;;;;25.50;5.65;;;;;;;;;;5113008;28;20353;-78
2021/12/20 07:45:50;;;;;;;25.52;5.57;;;;;;;;;;5112661;28;20044;-78
2021/12/20 07:48:17;;;;;;;13.65;4.45;;;;;;;;;;5112319;28;20389;-78
2021/12/20 07:50:44;;;;;;;13.77;4.55;;;;;;;;;;5112592;28;20035;-77
2021/12/20 07:53:10;;;;;;;18.75;5.72;;;;;;;;;;5112796;28;20097;-77
2021/12/20 07:55:36;;;;;;;18.23;5.75;;;;;;;;;;5112630;28;20043;-76
2021/12/20 07:58:03;;;;;;;20.98;5.78;;;;;;;;;;5112871;28;20035;-78
2021/12/20 08:00:29;;;;;;;19.38;6.15;;;;;;;;;;5094817;28;20062;-77
2021/12/20 08:02:56;;;;;;;16.40;4.90;;;;;;;;;;5112688;28;20512;-77
2021/12/20 08:05:23;;;;;;;51.50;5.47;;;;;;;;;;5077543;28;20071;-78
2021/12/20 08:07:50;;;;;;;16.42;4.80;;;;;;;;;;5094404;28;20471;-78
2021/12/20 08:10:20;;;;;;;19.48;6.18;;;;;;;;;;5112535;28;20052;-78
2021/12/20 08:12:46;;;;;;;30.80;7.68;;;;;;;;;;5094688;28;20055;-77
2021/12/20 08:15:13;;;;;;;15.77;7.03;;;;;;;;;;5112693;28;20089;-78
2021/12/20 08:17:39;;;;;;;18.88;7.18;;;;;;;;;;5112602;28;20039;-78
2021/12/20 08:20:07;;;;;;;19.67;5.75;;;;;;;;;;5111935;28;20489;-78
2021/12/20 08:22:33;;;;;;;15.93;6.47;;;;;;;;;;5112134;28;20042;-78
2021/12/20 08:24:59;;;;;;;19.50;6.47;;;;;;;;;;5112562;28;20043;-77
2021/12/20 08:27:25;;;;;;;17.50;5.47;;;;;;;;;;5112520;28;20079;-78
2021/12/20 08:29:51;;;;;;;13.65;6.65;;;;;;;;;;5112718;28;20048;-78
2021/12/20 08:32:18;;;;;;;25.25;8.80;;;;;;;;;;5094230;28;20425;-79
2021/12/20 08:34:44;;;;;;;18.77;9.23;;;;;;;;;;5112424;28;20044;-76
2021/12/20 08:37:10;;;;;;;17.60;10.60;;;;;;;;;;5077444;28;20056;-77
2021/12/20 08:39:36;;;;;;;18.67;8.93;;;;;;;;;;5115199;28;20044;-78
2021/12/20 08:42:03;;;;;;;21.67;9.05;;;;;;;;;;5116113;28;20047;-77
2021/12/20 08:44:29;;;;;;;20.48;8.98;;;;;;;;;;5097777;28;20036;-78
2021/12/20 08:46:56;;;;;;;23.45;9.27;;;;;;;;;;5115772;28;20537;-78
2021/12/20 08:49:22;;;;;;;26.38;9.02;;;;;;;;;;5115735;28;20388;-78
2021/12/20 08:51:48;;;;;;;44.67;9.77;;;;;;;;;;5115576;28;20380;-77
2021/12/20 08:54:14;;;;;;;217.13;18.63;;;;;;;;;;5115883;28;20080;-78
2021/12/20 08:56:41;;;;;;;385.55;31.02;;;;;;;;;;5097600;28;20047;-78
2021/12/20 08:59:07;;;;;;;426.17;39.20;;;;;;;;;;5097665;28;20456;-78
2021/12/20 09:01:33;;;;;;;407.98;37.38;;;;;;;;;;5115477;28;20134;-78
2021/12/20 09:03:59;;;;;;;194.43;26.08;;;;;;;;;;5097281;28;20039;-77
2021/12/20 09:06:27;;;;;;;108.57;19.50;;;;;;;;;;5115405;28;20421;-77
2021/12/20 09:08:54;;;;;;;21.60;7.40;;;;;;;;;;5115560;28;20100;-77
2021/12/20 09:11:25;;;;;;;15.63;5.78;;;;;;;;;;5115445;28;20092;-77
2021/12/20 09:13:52;;;;;;;11.98;4.78;;;;;;;;;;5097498;28;20172;-77
2021/12/20 09:16:18;;;;;;;11.27;4.65;;;;;;;;;;5115338;28;20182;-76
2021/12/20 09:18:44;;;;;;;22.63;5.82;;;;;;;;;;5115020;28;20378;-77
2021/12/20 09:21:11;;;;;;;13.00;7.60;;;;;;;;;;5115035;28;20051;-77
2021/12/20 09:23:38;;;;;;;17.58;10.07;;;;;;;;;;5115053;28;20039;-78
2021/12/20 09:26:04;;;;;;;16.45;9.07;;;;;;;;;;5115155;28;20089;-78
2021/12/20 09:28:30;;;;;;;22.80;5.07;;;;;;;;;;5114959;28;20047;-78
2021/12/20 09:30:56;;;;;;;10.63;5.70;;;;;;;;;;5114958;28;20388;-78
2021/12/20 09:33:22;;;;;;;8.90;4.30;;;;;;;;;;5114884;28;20040;-77
2021/12/20 09:35:50;;;;;;;9.75;3.80;;;;;;;;;;5096782;28;20047;-77
2021/12/20 09:38:18;;;;;;;8.50;3.58;;;;;;;;;;5114943;28;20044;-78
2021/12/20 09:41:02;;;;;;;8.10;4.78;;;;;;;;;;5096973;28;20044;-78
2021/12/20 09:43:28;;;;;;;11.25;5.25;;;;;;;;;;5114829;28;20549;-78
2021/12/20 09:45:55;;;;;;;11.70;5.50;;;;;;;;;;5114495;28;20075;-78
2021/12/20 09:48:21;;;;;;;14.27;5.38;;;;;;;;;;5114604;28;20036;-78
2021/12/20 09:50:48;;;;;;;10.95;5.45;;;;;;;;;;5095964;28;20100;-77
2021/12/20 09:53:14;;;;;;;21.55;6.57;;;;;;;;;;5114625;28;20043;-77
2021/12/20 09:55:45;;;;;;;14.48;5.63;;;;;;;;;;5114363;28;20544;-78
2021/12/20 09:58:11;;;;;;;13.60;5.17;;;;;;;;;;5114402;28;20066;-78
2021/12/20 10:00:38;;;;;;;17.20;4.72;;;;;;;;;;5114177;28;20277;-78
2021/12/20 10:03:04;;;;;;;12.68;6.25;;;;;;;;;;5114323;28;20096;-77
2021/12/20 10:05:31;;;;;;;18.63;10.95;;;;;;;;;;5114252;28;20395;-78
2021/12/20 10:07:58;;;;;;;19.38;12.90;;;;;;;;;;5114221;28;20278;-78
2021/12/20 10:10:35;;;;;;;22.33;17.95;;;;;;;;;;5113966;28;20047;-78
2021/12/20 10:13:01;;;;;;;29.52;20.98;;;;;;;;;;5113930;28;20435;-77
2021/12/20 10:15:37;;;;;;;16.98;9.57;;;;;;;;;;5096253;28;20131;-76
2021/12/20 10:18:05;;;;;;;76.57;46.67;;;;;;;;;;5113902;28;20050;-77
2021/12/20 10:20:33;;;;;;;58.72;44.53;;;;;;;;;;5095942;28;20043;-77
2021/12/20 10:23:25;;;;;;;47.65;40.70;;;;;;;;;;5078989;28;20135;-78
2021/12/20 10:25:53;;;;;;;23.33;19.63;;;;;;;;;;5109381;28;20385;-77
2021/12/20 10:28:22;;;;;;;28.90;25.80;;;;;;;;;;5113810;28;20393;-80
2021/12/20 10:30:58;;;;;;;21.05;18.75;;;;;;;;;;5113631;28;20088;-80
2021/12/20 10:33:25;;;;;;;15.02;8.50;;;;;;;;;;5113963;28;20063;-80
2021/12/20 10:35:53;;;;;;;11.38;5.80;;;;;;;;;;5113742;28;20039;-80
2021/12/20 10:38:20;;;;;;;13.02;5.80;;;;;;;;;;5113813;28;20126;-79
2021/12/20 10:40:51;;;;;;;12.63;5.18;;;;;;;;;;5113650;28;20484;-79
2021/12/20 10:43:22;;;;;;;12.10;5.47;;;;;;;;;;5095732;28;20598;-80
2021/12/20 10:45:48;;;;;;;17.42;5.93;;;;;;;;;;5113598;28;20048;-77
2021/12/20 10:48:14;;;;;;;19.52;7.45;;;;;;;;;;5113287;28;20043;-78
2021/12/20 10:50:44;;;;;;;19.92;5.90;;;;;;;;;;5113123;28;20051;-79
2021/12/20 10:53:12;;;;;;;17.48;6.25;;;;;;;;;;5095310;28;20047;-78
2021/12/20 10:55:42;;;;;;;15.48;6.20;;;;;;;;;;5095089;28;20035;-77
2021/12/20 10:58:19;;;;;;;19.95;6.50;;;;;;;;;;5113215;28;20180;-77
2021/12/20 11:00:45;;;;;;;26.30;7.75;;;;;;;;;;5094741;28;20047;-79
2021/12/20 11:06:14;;;;;;;18.10;7.15;;;;;;;;;;5113048;28;20047;-78
2021/12/20 11:11:25;;;;;;;23.60;6.88;;;;;;;;;;5094256;28;20051;-78
2021/12/20 11:13:52;;;;;;;20.52;8.57;;;;;;;;;;5113237;28;20083;-77
2021/12/20 11:16:35;;;;;;;30.45;12.55;;;;;;;;;;5112773;28;20136;-76
2021/12/20 11:19:07;;;;;;;21.42;10.20;;;;;;;;;;5094429;28;20047;-78
2021/12/20 11:21:37;;;;;;;20.02;8.75;;;;;;;;;;5094947;28;20051;-79
2021/12/20 11:24:03;;;;;;;20.85;8.60;;;;;;;;;;5112914;28;20066;-79
2021/12/20 11:26:30;;;;;;;29.27;12.77;;;;;;;;;;5113150;28;20043;-78
2021/12/20 11:28:56;;;;;;;28.80;10.43;;;;;;;;;;5112917;28;20495;-79
2021/12/20 11:31:23;;;;;;;25.98;9.13;;;;;;;;;;5094620;28;20187;-81
2021/12/20 11:33:49;;;;;;;25.83;6.85;;;;;;;;;;5094459;28;20040;-79
2021/12/20 11:36:15;;;;;;;23.65;5.82;;;;;;;;;;5112521;28;20039;-78
2021/12/20 11:38:41;;;;;;;20.98;6.05;;;;;;;;;;5095056;28;20126;-79
2021/12/20 11:41:07;;;;;;;21.45;6.95;;;;;;;;;;5094942;28;20165;-80
2021/12/20 11:43:34;;;;;;;20.85;6.13;;;;;;;;;;5112942;28;20092;-78
2021/12/20 11:46:00;;;;;;;21.48;5.40;;;;;;;;;;5094597;28;20372;-78
2021/12/20 11:48:28;;;;;;;28.20;5.05;;;;;;;;;;5094862;28;20040;-80
2021/12/20 11:50:58;;;;;;;22.73;5.47;;;;;;;;;;5112593;28;20082;-81
2021/12/20 11:53:24;;;;;;;22.30;4.68;;;;;;;;;;5112863;28;20062;-79
2021/12/20 11:55:54;;;;;;;22.60;4.85;;;;;;;;;;5094709;28;20043;-77
2021/12/20 11:58:21;;;;;;;28.40;11.43;;;;;;;;;;5112538;28;20130;-79
2021/12/20 12:00:49;;;;;;;25.70;6.40;;;;;;;;;;5094650;28;20047;-78
2021/12/20 12:03:15;;;;;;;20.92;4.75;;;;;;;;;;5113300;28;20086;-80
2021/12/20 12:06:01;;;;;;;19.25;4.25;;;;;;;;;;5112453;28;20127;-79
2021/12/20 12:08:27;;;;;;;18.65;5.20;;;;;;;;;;5128036;28;20079;-77
2021/12/20 12:10:55;;;;;;;22.38;7.60;;;;;;;;;;5097811;28;20066;-79
2021/12/20 12:13:23;;;;;;;28.40;6.28;;;;;;;;;;5119173;28;20040;-74
2021/12/20 12:16:05;;;;;;;22.70;4.80;;;;;;;;;;5116138;28;20492;-79
2021/12/20 12:18:44;;;;;;;23.50;7.60;;;;;;;;;;5116341;27;20098;-78
2021/12/20 12:21:29;;;;;;;15.82;4.72;;;;;;;;;;5116364;28;20157;-78
2021/12/20 12:23:55;;;;;;;18.40;4.57;;;;;;;;;;5098435;27;20054;-79
2021/12/20 12:26:33;;;;;;;14.85;4.10;;;;;;;;;;5136414;27;20488;-77
2021/12/20 12:29:00;;;;;;;19.60;4.18;;;;;;;;;;5083542;28;20496;-79
2021/12/20 12:31:27;;;;;;;17.13;4.28;;;;;;;;;;5081226;28;20035;-77
2021/12/20 12:34:06;;;;;;;14.75;4.72;;;;;;;;;;5112597;27;20131;-79
2021/12/20 12:36:39;;;;;;;15.93;4.60;;;;;;;;;;5136440;27;20094;-75
2021/12/20 12:39:09;;;;;;;18.67;5.80;;;;;;;;;;5119217;27;20062;-78
2021/12/20 12:41:49;;;;;;;27.63;11.17;;;;;;;;;;5098088;28;20448;-78
2021/12/20 12:44:24;;;;;;;30.67;10.95;;;;;;;;;;5115826;27;20043;-80
2021/12/20 12:46:58;;;;;;;15.43;5.57;;;;;;;;;;5115519;28;20504;-78
2021/12/20 12:49:26;;;;;;;14.65;4.40;;;;;;;;;;5115965;27;20063;-79
2021/12/20 12:51:57;;;;;;;19.88;5.57;;;;;;;;;;5097781;28;20044;-79
2021/12/20 12:54:38;;;;;;;19.75;6.07;;;;;;;;;;5097565;28;20039;-79
2021/12/20 12:57:04;;;;;;;;;;;;;;;;;;5115709;28;20043;-81
2021/12/20 12:59:30;;;;;;;15.02;4.95;;;;;;;;;;5097192;28;20413;-81
2021/12/20 13:01:57;;;;;;;14.13;3.97;;;;;;;;;;5097720;28;20127;-79
2021/12/20 13:04:43;;;;;;;14.30;3.83;;;;;;;;;;5097165;28;20047;-79
2021/12/20 13:07:09;;;;;;;17.20;5.07;;;;;;;;;;5098223;28;20053;-81
2021/12/20 13:09:43;;;;;;;21.58;6.68;;;;;;;;;;5097640;28;20044;-80
2021/12/20 13:12:16;;;;;;;17.23;4.97;;;;;;;;;;5115160;28;20114;-75
2021/12/20 13:15:04;;;;;;;18.20;4.90;;;;;;;;;;5097580;28;20048;-82
2021/12/20 13:17:31;;;;;;;18.63;6.03;;;;;;;;;;5099280;27;20547;-78
2021/12/20 13:23:04;;;;;;;16.60;4.47;;;;;;;;;;5099999;27;20100;-79
2021/12/20 13:25:35;;;;;;;14.23;3.83;;;;;;;;;;5095956;28;20138;-79
2021/12/20 13:28:01;;;;;;;10.17;3.20;;;;;;;;;;5114974;28;20066;-78
2021/12/20 13:30:36;;;;;;;15.70;3.70;;;;;;;;;;5114951;28;20044;-78
2021/12/20 13:33:03;;;;;;;17.58;4.15;;;;;;;;;;5096779;28;20126;-81
2021/12/20 13:35:29;;;;;;;14.00;3.83;;;;;;;;;;5096774;28;20119;-79
2021/12/20 13:38:12;;;;;;;17.35;3.72;;;;;;;;;;5115054;28;20043;-81
2021/12/20 13:40:53;;;;;;;10.55;3.30;;;;;;;;;;5114832;28;20044;-78
2021/12/20 13:43:42;;;;;;;12.38;3.13;;;;;;;;;;5096463;28;20431;-79
2021/12/20 13:46:13;;;;;;;10.90;3.05;;;;;;;;;;5114162;28;20126;-78
2021/12/20 13:48:48;;;;;;;12.55;2.65;;;;;;;;;;5114653;28;20047;-82
2021/12/20 13:51:15;;;;;;;17.13;3.60;;;;;;;;;;5096295;28;20039;-78
2021/12/20 13:53:41;;;;;;;12.52;3.40;;;;;;;;;;5096488;28;20100;-81
2021/12/20 13:56:07;;;;;;;13.95;3.17;;;;;;;;;;5096490;28;20045;-80
2021/12/20 13:58:34;;;;;;;11.60;3.22;;;;;;;;;;5096242;28;20047;-80
2021/12/20 14:01:00;;;;;;;10.48;2.90;;;;;;;;;;5095954;28;20487;-80
2021/12/20 14:03:26;;;;;;;15.25;3.58;;;;;;;;;;5096153;28;20090;-78
2021/12/20 14:05:52;;;;;;;12.93;3.72;;;;;;;;;;5096004;28;20044;-80
2021/12/20 14:08:21;;;;;;;15.55;3.70;;;;;;;;;;5096126;28;20119;-78
2021/12/20 14:10:48;;;;;;;13.10;2.97;;;;;;;;;;5114160;28;20127;-76
2021/12/20 14:13:19;;;;;;;12.80;3.30;;;;;;;;;;5114140;28;20043;-77
2021/12/20 14:15:46;;;;;;;13.77;4.28;;;;;;;;;;5113819;28;20389;-80
2021/12/20 14:18:20;;;;;;;13.35;3.47;;;;;;;;;;5095432;28;20051;-81
2021/12/20 14:20:50;;;;;;;12.98;3.67;;;;;;;;;;5113722;28;20051;-79
2021/12/20 14:23:16;;;;;;;14.25;4.13;;;;;;;;;;5113909;28;20066;-80
2021/12/20 14:25:43;;;;;;;16.58;3.85;;;;;;;;;;5113742;28;20481;-77
2021/12/20 14:28:18;;;;;;;16.05;4.78;;;;;;;;;;5078739;28;20052;-80
2021/12/20 14:30:50;;;;;;;15.07;5.15;;;;;;;;;;5095742;28;20108;-78
2021/12/20 14:33:25;;;;;;;13.07;4.57;;;;;;;;;;5095528;28;20123;-79
2021/12/20 14:35:52;;;;;;;40.83;26.88;;;;;;;;;;5113569;28;20043;-80
2021/12/20 14:38:27;;;;;;;19.92;9.45;;;;;;;;;;5113922;28;20051;-77
2021/12/20 14:40:53;;;;;;;22.65;8.82;;;;;;;;;;5113762;28;20130;-78
2021/12/20 14:43:21;;;;;;;18.27;5.93;;;;;;;;;;5113698;28;20048;-79
2021/12/20 14:45:52;;;;;;;15.15;4.75;;;;;;;;;;5113443;28;20063;-80
2021/12/20 14:48:23;;;;;;;14.50;4.60;;;;;;;;;;5113779;28;20223;-79
2021/12/20 14:50:50;;;;;;;;;;;;;;;;;;5095859;28;20136;-77
2021/12/20 14:53:26;;;;;;;18.00;4.30;;;;;;;;;;5095063;28;20391;-80